Aérodrome :
LOGIN :

S'inscrire | Disclaimer

   EN    FR    IT 

 










Légende :    VFR   VFR Marginal   IFR   IFR Intensif   IFR Très Intensif
Visi : 
Plafond : 
>= 8 km
>= 3000ft
5 à 8 km
1000 à 3000 ft
1500m à 5 km
500 à 1000 ft
800 à 1500m
200 à 500 ft
< 800m
< 200 ft
Symboles :   Orages  Brouillard  Fortes neiges  Fortes précipitations  Vent > 20 kt
SIGMETs :   Divers  Orages  Givrage  Turbulence  Onde Orograph.  Cendres Volcan.







- Altitude de l'aérodrome : 83 ft
- Code IATA : LHR
- Voir les cartes d'approche


EGLL - London Heathrow

DERNIER METAR :
  • 250020Z AUTO 06004KT 9000 SCT024 BKN033 15/14 Q1018 NOSIG

METARs EXPIRÉS :
  • 242350Z AUTO 09005KT 7000 -RA SCT024 SCT029 BKN035 15/14 Q1019 NOSIG
  • 242320Z AUTO 07004KT 8000 -RA BKN024 BKN035 15/14 Q1019 NOSIG
  • 242250Z AUTO 08005KT 6000 -RA SCT034 15/14 Q1019
  • 242220Z AUTO 11004KT 050V160 8000 -RA BKN036 15/13 Q1019
  • 242150Z AUTO 10004KT 9999 -RA BKN032 16/13 Q1019 NOSIG

TAF TAF EGLL
Valide du 25 à 00h jusqu'au 26 à 06h UTC


242254Z 2500/2606 09004KT 9999 BKN035
TEMPO 2500/2512 6000 -RA
PROB40
TEMPO 2500/2509 4000 BR RADZ BKN014
BECMG 2522/2524 7000
BECMG 2600/2603 2500 BR
PROB30 2604/2606 0400 FG BKN001
Pas de NOTAMs connus pour ce terrain.



MET'MAP, la Météo Aéronautique d'un coup d'oeil ! - Copyright ORBIFLY Décembre 2007 - Disclaimer

ORBIFLY MET'MAP TEAM :

Programmation & Développement : Alexandra Zaïnal
Conception & Développement : Baudouin d'Aumeries
Co-Programmation & Développement : Marc-Olivier Méhu
Soutien technique & logistique : Manuel Goepfert

Contact : metmap@orbifly.com




SOURCES & CREDITS :

   NOAA